Terminal Aerodrome Forecast
Issued by NWS

Home | Current Version | Previous Version | Text Only | Print | Product List | Glossary On
Versions: 1 2 3 4 5 6 7 8 9 10 11 12 13 14 15 16 17 18 19 20 21 22 23 24 25 26 27 28 29 30 31 32 33 34 35 36 37 38 39 40 41
000
FTUS43 KPAH 250636 AAA
TAFOWB
TAF AMD
KOWB 250636Z 2507/2606 19015KT P6SM -SHRA BKN040
      TEMPO 2507/2509 2SM +TSRA BR BKN015CB
     FM251000 20013KT P6SM SCT035 BKN100
     FM251900 19013KT P6SM SCT050 BKN150
     FM260000 17008KT P6SM SCT040 BKN070=

USA.gov is the U.S. government's official web portal to all federal, state and local government web resources and services.